sensor_id;sensor_type;location;lat;lon;timestamp;pressure;altitude;pressure_sealevel;temperature
68588;BMP180;55560;52.174;20.996;2023-02-28T00:01:32;101989.00;;;1.10
68588;BMP180;55560;52.174;20.996;2023-02-28T00:04:01;101991.80;;;1.10
68588;BMP180;55560;52.174;20.996;2023-02-28T00:06:30;101996.20;;;1.10
68588;BMP180;55560;52.174;20.996;2023-02-28T00:08:58;101996.80;;;1.04
68588;BMP180;55560;52.174;20.996;2023-02-28T00:11:26;101997.60;;;1.00
68588;BMP180;55560;52.174;20.996;2023-02-28T00:13:55;102005.00;;;1.00
68588;BMP180;55560;52.174;20.996;2023-02-28T00:16:23;102000.40;;;1.00
68588;BMP180;55560;52.174;20.996;2023-02-28T00:18:51;101999.80;;;1.00
68588;BMP180;55560;52.174;20.996;2023-02-28T00:21:20;102003.60;;;1.00
68588;BMP180;55560;52.174;20.996;2023-02-28T00:23:48;102000.40;;;1.00
68588;BMP180;55560;52.174;20.996;2023-02-28T00:26:16;102003.60;;;0.98
68588;BMP180;55560;52.174;20.996;2023-02-28T00:28:46;102006.00;;;0.90
68588;BMP180;55560;52.174;20.996;2023-02-28T00:31:14;102007.60;;;0.90
68588;BMP180;55560;52.174;20.996;2023-02-28T00:33:42;102012.20;;;0.90
68588;BMP180;55560;52.174;20.996;2023-02-28T00:36:11;102008.40;;;0.90
68588;BMP180;55560;52.174;20.996;2023-02-28T00:38:40;102012.20;;;0.90
68588;BMP180;55560;52.174;20.996;2023-02-28T00:41:08;102008.40;;;0.90
68588;BMP180;55560;52.174;20.996;2023-02-28T00:43:39;102007.80;;;0.90
68588;BMP180;55560;52.174;20.996;2023-02-28T00:46:08;102012.20;;;0.90
68588;BMP180;55560;52.174;20.996;2023-02-28T00:48:36;102012.80;;;0.90
68588;BMP180;55560;52.174;20.996;2023-02-28T00:51:04;102009.20;;;0.90
68588;BMP180;55560;52.174;20.996;2023-02-28T00:53:33;102013.40;;;0.86
68588;BMP180;55560;52.174;20.996;2023-02-28T00:56:02;102008.00;;;0.80
68588;BMP180;55560;52.174;20.996;2023-02-28T00:58:31;102006.60;;;0.80
68588;BMP180;55560;52.174;20.996;2023-02-28T01:00:59;102009.40;;;0.80
68588;BMP180;55560;52.174;20.996;2023-02-28T01:03:28;102009.00;;;0.76
68588;BMP180;55560;52.174;20.996;2023-02-28T01:05:56;102008.60;;;0.70
68588;BMP180;55560;52.174;20.996;2023-02-28T01:08:24;102005.00;;;0.70
68588;BMP180;55560;52.174;20.996;2023-02-28T01:10:53;102004.00;;;0.70
68588;BMP180;55560;52.174;20.996;2023-02-28T01:13:23;102003.20;;;0.70
68588;BMP180;55560;52.174;20.996;2023-02-28T01:15:55;102000.40;;;0.70
68588;BMP180;55560;52.174;20.996;2023-02-28T01:18:23;102001.00;;;0.70
68588;BMP180;55560;52.174;20.996;2023-02-28T01:20:52;102001.60;;;0.70
68588;BMP180;55560;52.174;20.996;2023-02-28T01:23:21;102000.80;;;0.70
68588;BMP180;55560;52.174;20.996;2023-02-28T01:25:51;102003.80;;;0.60
68588;BMP180;55560;52.174;20.996;2023-02-28T01:28:20;102003.40;;;0.60
68588;BMP180;55560;52.174;20.996;2023-02-28T01:30:50;101999.80;;;0.58
68588;BMP180;55560;52.174;20.996;2023-02-28T01:33:18;101998.80;;;0.50
68588;BMP180;55560;52.174;20.996;2023-02-28T01:35:47;102004.80;;;0.50
68588;BMP180;55560;52.174;20.996;2023-02-28T01:38:15;102005.80;;;0.50
68588;BMP180;55560;52.174;20.996;2023-02-28T01:40:50;102003.20;;;0.50
68588;BMP180;55560;52.174;20.996;2023-02-28T01:43:53;102004.40;;;0.50
68588;BMP180;55560;52.174;20.996;2023-02-28T01:46:21;102004.40;;;0.50
68588;BMP180;55560;52.174;20.996;2023-02-28T01:49:13;102012.00;;;0.50
68588;BMP180;55560;52.174;20.996;2023-02-28T01:51:50;102015.40;;;0.50
68588;BMP180;55560;52.174;20.996;2023-02-28T01:54:26;102018.80;;;0.40
68588;BMP180;55560;52.174;20.996;2023-02-28T01:57:00;102014.40;;;0.40
68588;BMP180;55560;52.174;20.996;2023-02-28T01:59:38;102016.40;;;0.40
68588;BMP180;55560;52.174;20.996;2023-02-28T02:05:00;102011.80;;;0.40
68588;BMP180;55560;52.174;20.996;2023-02-28T02:07:37;102010.20;;;0.40
68588;BMP180;55560;52.174;20.996;2023-02-28T02:10:18;102009.00;;;0.30
68588;BMP180;55560;52.174;20.996;2023-02-28T02:16:32;102006.00;;;0.30
68588;BMP180;55560;52.174;20.996;2023-02-28T02:23:02;101999.20;;;0.30
68588;BMP180;55560;52.174;20.996;2023-02-28T02:25:42;102002.40;;;0.30
68588;BMP180;55560;52.174;20.996;2023-02-28T02:37:43;102005.80;;;0.30
68588;BMP180;55560;52.174;20.996;2023-02-28T02:40:22;102009.80;;;0.30
68588;BMP180;55560;52.174;20.996;2023-02-28T02:43:01;102005.00;;;0.28
68588;BMP180;55560;52.174;20.996;2023-02-28T02:45:49;102005.40;;;0.22
68588;BMP180;55560;52.174;20.996;2023-02-28T02:48:27;102008.00;;;0.20
68588;BMP180;55560;52.174;20.996;2023-02-28T02:51:11;102011.80;;;0.20
68588;BMP180;55560;52.174;20.996;2023-02-28T02:53:49;102013.40;;;0.20
68588;BMP180;55560;52.174;20.996;2023-02-28T02:56:24;102015.40;;;0.24
68588;BMP180;55560;52.174;20.996;2023-02-28T02:59:02;102016.80;;;0.30
68588;BMP180;55560;52.174;20.996;2023-02-28T03:01:31;102023.40;;;0.24
68588;BMP180;55560;52.174;20.996;2023-02-28T03:04:14;102022.40;;;0.22
68588;BMP180;55560;52.174;20.996;2023-02-28T03:06:44;102025.80;;;0.20
68588;BMP180;55560;52.174;20.996;2023-02-28T03:09:12;102023.20;;;0.20
68588;BMP180;55560;52.174;20.996;2023-02-28T03:11:41;102019.60;;;0.20
68588;BMP180;55560;52.174;20.996;2023-02-28T03:14:56;102020.60;;;0.20
68588;BMP180;55560;52.174;20.996;2023-02-28T03:17:48;102020.20;;;0.20
68588;BMP180;55560;52.174;20.996;2023-02-28T03:20:35;102020.60;;;0.20
68588;BMP180;55560;52.174;20.996;2023-02-28T03:23:16;102025.00;;;0.20
68588;BMP180;55560;52.174;20.996;2023-02-28T03:26:04;102024.80;;;0.20
68588;BMP180;55560;52.174;20.996;2023-02-28T03:31:22;102019.00;;;0.20
68588;BMP180;55560;52.174;20.996;2023-02-28T03:34:12;102020.20;;;0.20
68588;BMP180;55560;52.174;20.996;2023-02-28T03:36:47;102022.40;;;0.20
68588;BMP180;55560;52.174;20.996;2023-02-28T03:39:21;102024.80;;;0.14
68588;BMP180;55560;52.174;20.996;2023-02-28T03:42:05;102028.40;;;0.10
68588;BMP180;55560;52.174;20.996;2023-02-28T03:44:42;102026.20;;;0.10
68588;BMP180;55560;52.174;20.996;2023-02-28T03:50:26;102031.60;;;0.18
68588;BMP180;55560;52.174;20.996;2023-02-28T03:53:04;102030.20;;;0.20
68588;BMP180;55560;52.174;20.996;2023-02-28T03:55:56;102034.60;;;0.20
68588;BMP180;55560;52.174;20.996;2023-02-28T03:58:47;102031.40;;;0.20
68588;BMP180;55560;52.174;20.996;2023-02-28T04:01:31;102031.00;;;0.20
68588;BMP180;55560;52.174;20.996;2023-02-28T04:04:01;102037.20;;;0.20
68588;BMP180;55560;52.174;20.996;2023-02-28T04:06:33;102042.00;;;0.20
68588;BMP180;55560;52.174;20.996;2023-02-28T04:09:03;102037.40;;;0.20
68588;BMP180;55560;52.174;20.996;2023-02-28T04:11:41;102036.40;;;0.20
68588;BMP180;55560;52.174;20.996;2023-02-28T04:14:11;102035.60;;;0.20
68588;BMP180;55560;52.174;20.996;2023-02-28T04:16:41;102032.20;;;0.20
68588;BMP180;55560;52.174;20.996;2023-02-28T04:19:12;102032.60;;;0.20
68588;BMP180;55560;52.174;20.996;2023-02-28T04:21:43;102039.00;;;0.10
68588;BMP180;55560;52.174;20.996;2023-02-28T04:24:23;102039.60;;;0.12
68588;BMP180;55560;52.174;20.996;2023-02-28T04:26:55;102039.60;;;0.12
68588;BMP180;55560;52.174;20.996;2023-02-28T04:29:27;102038.00;;;0.14
68588;BMP180;55560;52.174;20.996;2023-02-28T04:31:56;102039.60;;;0.20
68588;BMP180;55560;52.174;20.996;2023-02-28T04:34:30;102037.60;;;0.20
68588;BMP180;55560;52.174;20.996;2023-02-28T04:36:58;102042.60;;;0.12
68588;BMP180;55560;52.174;20.996;2023-02-28T04:39:42;102043.80;;;0.10
68588;BMP180;55560;52.174;20.996;2023-02-28T04:42:11;102044.00;;;0.12
68588;BMP180;55560;52.174;20.996;2023-02-28T04:44:40;102042.80;;;0.10
68588;BMP180;55560;52.174;20.996;2023-02-28T04:47:08;102041.60;;;0.10
68588;BMP180;55560;52.174;20.996;2023-02-28T04:49:36;102045.20;;;0.10
68588;BMP180;55560;52.174;20.996;2023-02-28T04:52:04;102042.40;;;0.10
68588;BMP180;55560;52.174;20.996;2023-02-28T04:54:32;102041.40;;;0.10
68588;BMP180;55560;52.174;20.996;2023-02-28T04:57:00;102039.20;;;0.10
68588;BMP180;55560;52.174;20.996;2023-02-28T04:59:29;102040.60;;;0.10
68588;BMP180;55560;52.174;20.996;2023-02-28T05:01:56;102035.40;;;0.10
68588;BMP180;55560;52.174;20.996;2023-02-28T05:04:24;102040.80;;;0.04
68588;BMP180;55560;52.174;20.996;2023-02-28T05:06:52;102048.00;;;0.00
68588;BMP180;55560;52.174;20.996;2023-02-28T05:09:20;102050.80;;;0.00
68588;BMP180;55560;52.174;20.996;2023-02-28T05:11:48;102053.80;;;0.00
68588;BMP180;55560;52.174;20.996;2023-02-28T05:14:15;102058.00;;;-0.04
68588;BMP180;55560;52.174;20.996;2023-02-28T05:16:43;102058.00;;;-0.10
68588;BMP180;55560;52.174;20.996;2023-02-28T05:19:11;102064.20;;;-0.10
68588;BMP180;55560;52.174;20.996;2023-02-28T05:21:41;102065.40;;;-0.10
68588;BMP180;55560;52.174;20.996;2023-02-28T05:24:15;102062.40;;;-0.18
68588;BMP180;55560;52.174;20.996;2023-02-28T05:26:53;102071.60;;;-0.12
68588;BMP180;55560;52.174;20.996;2023-02-28T05:29:21;102078.20;;;-0.10
68588;BMP180;55560;52.174;20.996;2023-02-28T05:31:49;102078.80;;;-0.20
68588;BMP180;55560;52.174;20.996;2023-02-28T05:34:18;102078.80;;;-0.20
68588;BMP180;55560;52.174;20.996;2023-02-28T05:36:45;102078.60;;;-0.20
68588;BMP180;55560;52.174;20.996;2023-02-28T05:39:14;102080.80;;;-0.20
68588;BMP180;55560;52.174;20.996;2023-02-28T05:41:43;102081.00;;;-0.20
68588;BMP180;55560;52.174;20.996;2023-02-28T05:44:11;102081.40;;;-0.20
68588;BMP180;55560;52.174;20.996;2023-02-28T05:46:39;102082.40;;;-0.22
68588;BMP180;55560;52.174;20.996;2023-02-28T05:49:08;102086.40;;;-0.20
68588;BMP180;55560;52.174;20.996;2023-02-28T05:51:35;102085.80;;;-0.20
68588;BMP180;55560;52.174;20.996;2023-02-28T05:54:07;102092.80;;;-0.20
68588;BMP180;55560;52.174;20.996;2023-02-28T05:56:36;102094.20;;;-0.20
68588;BMP180;55560;52.174;20.996;2023-02-28T05:59:06;102095.20;;;-0.20
68588;BMP180;55560;52.174;20.996;2023-02-28T06:01:43;102098.00;;;-0.20
68588;BMP180;55560;52.174;20.996;2023-02-28T06:04:19;102103.40;;;-0.20
68588;BMP180;55560;52.174;20.996;2023-02-28T06:07:03;102104.20;;;-0.10
68588;BMP180;55560;52.174;20.996;2023-02-28T06:09:31;102100.80;;;-0.14
68588;BMP180;55560;52.174;20.996;2023-02-28T06:12:00;102108.00;;;-0.14
68588;BMP180;55560;52.174;20.996;2023-02-28T06:14:33;102111.20;;;-0.10
68588;BMP180;55560;52.174;20.996;2023-02-28T06:17:03;102108.40;;;-0.18
68588;BMP180;55560;52.174;20.996;2023-02-28T06:19:31;102113.00;;;-0.12
68588;BMP180;55560;52.174;20.996;2023-02-28T06:21:59;102111.20;;;-0.10
68588;BMP180;55560;52.174;20.996;2023-02-28T06:24:27;102110.00;;;-0.10
68588;BMP180;55560;52.174;20.996;2023-02-28T06:26:58;102113.00;;;-0.06
68588;BMP180;55560;52.174;20.996;2023-02-28T06:29:34;102110.40;;;0.00
68588;BMP180;55560;52.174;20.996;2023-02-28T06:32:02;102108.40;;;0.00
68588;BMP180;55560;52.174;20.996;2023-02-28T06:34:30;102116.00;;;0.10
68588;BMP180;55560;52.174;20.996;2023-02-28T06:36:58;102117.20;;;0.10
68588;BMP180;55560;52.174;20.996;2023-02-28T06:39:30;102110.80;;;0.10
68588;BMP180;55560;52.174;20.996;2023-02-28T06:41:58;102107.00;;;0.16
68588;BMP180;55560;52.174;20.996;2023-02-28T06:44:26;102101.00;;;0.20
68588;BMP180;55560;52.174;20.996;2023-02-28T06:46:54;102097.20;;;0.30
68588;BMP180;55560;52.174;20.996;2023-02-28T06:49:22;102091.20;;;0.30
68588;BMP180;55560;52.174;20.996;2023-02-28T06:51:50;102092.60;;;0.30
68588;BMP180;55560;52.174;20.996;2023-02-28T06:54:18;102089.00;;;0.40
68588;BMP180;55560;52.174;20.996;2023-02-28T06:56:45;102090.80;;;0.40
68588;BMP180;55560;52.174;20.996;2023-02-28T06:59:15;102091.00;;;0.40
68588;BMP180;55560;52.174;20.996;2023-02-28T07:01:43;102086.60;;;0.40
68588;BMP180;55560;52.174;20.996;2023-02-28T07:04:12;102086.40;;;0.40
68588;BMP180;55560;52.174;20.996;2023-02-28T07:06:40;102085.80;;;0.50
68588;BMP180;55560;52.174;20.996;2023-02-28T07:09:08;102089.60;;;0.50
68588;BMP180;55560;52.174;20.996;2023-02-28T07:11:36;102080.20;;;0.56
68588;BMP180;55560;52.174;20.996;2023-02-28T07:14:04;102083.20;;;0.60
68588;BMP180;55560;52.174;20.996;2023-02-28T07:16:32;102082.40;;;0.64
68588;BMP180;55560;52.174;20.996;2023-02-28T07:19:00;102088.00;;;0.70
68588;BMP180;55560;52.174;20.996;2023-02-28T07:21:27;102089.00;;;0.70
68588;BMP180;55560;52.174;20.996;2023-02-28T07:23:56;102090.40;;;0.70
68588;BMP180;55560;52.174;20.996;2023-02-28T07:26:24;102089.60;;;0.80
68588;BMP180;55560;52.174;20.996;2023-02-28T07:28:52;102090.80;;;0.80
68588;BMP180;55560;52.174;20.996;2023-02-28T07:31:20;102092.60;;;0.80
68588;BMP180;55560;52.174;20.996;2023-02-28T07:33:48;102095.60;;;0.90
68588;BMP180;55560;52.174;20.996;2023-02-28T07:36:17;102095.20;;;0.90
68588;BMP180;55560;52.174;20.996;2023-02-28T07:38:47;102097.80;;;0.90
68588;BMP180;55560;52.174;20.996;2023-02-28T07:41:21;102085.20;;;0.90
68588;BMP180;55560;52.174;20.996;2023-02-28T07:43:49;102085.00;;;1.00
68588;BMP180;55560;52.174;20.996;2023-02-28T07:46:19;102085.60;;;1.00
68588;BMP180;55560;52.174;20.996;2023-02-28T07:48:48;102084.80;;;1.10
68588;BMP180;55560;52.174;20.996;2023-02-28T07:51:16;102090.40;;;1.10
68588;BMP180;55560;52.174;20.996;2023-02-28T07:53:45;102094.60;;;1.10
68588;BMP180;55560;52.174;20.996;2023-02-28T07:56:13;102090.40;;;1.20
68588;BMP180;55560;52.174;20.996;2023-02-28T07:58:41;102089.40;;;1.20
68588;BMP180;55560;52.174;20.996;2023-02-28T08:01:10;102087.80;;;1.30
68588;BMP180;55560;52.174;20.996;2023-02-28T08:03:39;102088.20;;;1.32
68588;BMP180;55560;52.174;20.996;2023-02-28T08:06:20;102089.80;;;1.40
68588;BMP180;55560;52.174;20.996;2023-02-28T08:08:49;102087.40;;;1.50
68588;BMP180;55560;52.174;20.996;2023-02-28T08:11:17;102084.20;;;1.60
68588;BMP180;55560;52.174;20.996;2023-02-28T08:13:45;102087.80;;;1.68
68588;BMP180;55560;52.174;20.996;2023-02-28T08:16:14;102092.00;;;1.72
68588;BMP180;55560;52.174;20.996;2023-02-28T08:18:45;102089.00;;;1.80
68588;BMP180;55560;52.174;20.996;2023-02-28T08:21:13;102094.60;;;1.90
68588;BMP180;55560;52.174;20.996;2023-02-28T08:23:41;102095.80;;;2.00
68588;BMP180;55560;52.174;20.996;2023-02-28T08:26:09;102089.40;;;2.10
68588;BMP180;55560;52.174;20.996;2023-02-28T08:28:37;102083.20;;;2.20
68588;BMP180;55560;52.174;20.996;2023-02-28T08:31:11;102080.20;;;2.20
68588;BMP180;55560;52.174;20.996;2023-02-28T08:33:40;102085.20;;;2.30
68588;BMP180;55560;52.174;20.996;2023-02-28T08:36:09;102081.80;;;2.40
68588;BMP180;55560;52.174;20.996;2023-02-28T08:38:37;102083.00;;;2.40
68588;BMP180;55560;52.174;20.996;2023-02-28T08:41:10;102084.20;;;2.48
68588;BMP180;55560;52.174;20.996;2023-02-28T08:43:39;102084.40;;;2.50
68588;BMP180;55560;52.174;20.996;2023-02-28T08:46:11;102084.40;;;2.60
68588;BMP180;55560;52.174;20.996;2023-02-28T08:48:40;102081.80;;;2.70
68588;BMP180;55560;52.174;20.996;2023-02-28T08:51:14;102076.20;;;2.74
68588;BMP180;55560;52.174;20.996;2023-02-28T08:53:45;102083.40;;;2.82
68588;BMP180;55560;52.174;20.996;2023-02-28T08:56:16;102090.60;;;3.00
68588;BMP180;55560;52.174;20.996;2023-02-28T08:58:48;102088.00;;;3.10
68588;BMP180;55560;52.174;20.996;2023-02-28T09:01:19;102086.80;;;3.20
68588;BMP180;55560;52.174;20.996;2023-02-28T09:03:49;102089.40;;;3.30
68588;BMP180;55560;52.174;20.996;2023-02-28T09:06:20;102088.40;;;3.40
68588;BMP180;55560;52.174;20.996;2023-02-28T09:08:50;102094.20;;;3.58
68588;BMP180;55560;52.174;20.996;2023-02-28T09:11:19;102094.60;;;3.60
68588;BMP180;55560;52.174;20.996;2023-02-28T09:13:47;102090.80;;;3.70
68588;BMP180;55560;52.174;20.996;2023-02-28T09:16:16;102089.20;;;3.70
68588;BMP180;55560;52.174;20.996;2023-02-28T09:18:44;102096.80;;;3.70
68588;BMP180;55560;52.174;20.996;2023-02-28T09:21:17;102099.40;;;3.70
68588;BMP180;55560;52.174;20.996;2023-02-28T09:23:48;102104.60;;;3.70
68588;BMP180;55560;52.174;20.996;2023-02-28T09:26:21;102099.20;;;3.70
68588;BMP180;55560;52.174;20.996;2023-02-28T09:28:50;102106.00;;;3.60
68588;BMP180;55560;52.174;20.996;2023-02-28T09:31:25;102101.60;;;3.60
68588;BMP180;55560;52.174;20.996;2023-02-28T09:33:57;102105.80;;;3.60
68588;BMP180;55560;52.174;20.996;2023-02-28T09:36:27;102107.20;;;3.60
68588;BMP180;55560;52.174;20.996;2023-02-28T09:39:11;102106.20;;;3.60
68588;BMP180;55560;52.174;20.996;2023-02-28T09:41:43;102106.80;;;3.60
68588;BMP180;55560;52.174;20.996;2023-02-28T09:44:29;102106.80;;;3.60
68588;BMP180;55560;52.174;20.996;2023-02-28T09:50:06;102102.20;;;3.60
68588;BMP180;55560;52.174;20.996;2023-02-28T09:52:39;102102.40;;;3.50
68588;BMP180;55560;52.174;20.996;2023-02-28T09:58:42;102097.20;;;3.50
68588;BMP180;55560;52.174;20.996;2023-02-28T10:04:14;102101.60;;;3.50
68588;BMP180;55560;52.174;20.996;2023-02-28T10:06:51;102100.00;;;3.50
68588;BMP180;55560;52.174;20.996;2023-02-28T10:09:30;102103.40;;;3.60
68588;BMP180;55560;52.174;20.996;2023-02-28T10:12:03;102104.80;;;3.50
68588;BMP180;55560;52.174;20.996;2023-02-28T10:14:34;102100.80;;;3.50
68588;BMP180;55560;52.174;20.996;2023-02-28T10:22:25;102100.20;;;3.50
68588;BMP180;55560;52.174;20.996;2023-02-28T10:24:57;102099.40;;;3.58
68588;BMP180;55560;52.174;20.996;2023-02-28T10:27:30;102095.40;;;3.60
68588;BMP180;55560;52.174;20.996;2023-02-28T10:30:01;102097.40;;;3.60
68588;BMP180;55560;52.174;20.996;2023-02-28T10:32:33;102094.20;;;3.50
68588;BMP180;55560;52.174;20.996;2023-02-28T10:35:21;102096.20;;;3.50
68588;BMP180;55560;52.174;20.996;2023-02-28T10:37:57;102099.20;;;3.50
68588;BMP180;55560;52.174;20.996;2023-02-28T10:40:34;102096.20;;;3.50
68588;BMP180;55560;52.174;20.996;2023-02-28T10:43:12;102092.40;;;3.50
68588;BMP180;55560;52.174;20.996;2023-02-28T10:48:45;102096.20;;;3.58
68588;BMP180;55560;52.174;20.996;2023-02-28T10:51:16;102094.20;;;3.60
68588;BMP180;55560;52.174;20.996;2023-02-28T10:53:51;102095.00;;;3.60
68588;BMP180;55560;52.174;20.996;2023-02-28T10:56:28;102092.80;;;3.60
68588;BMP180;55560;52.174;20.996;2023-02-28T10:59:30;102095.00;;;3.60
68588;BMP180;55560;52.174;20.996;2023-02-28T11:01:58;102083.40;;;3.60
68588;BMP180;55560;52.174;20.996;2023-02-28T11:07:22;102072.40;;;3.60
68588;BMP180;55560;52.174;20.996;2023-02-28T11:09:54;102077.80;;;3.60
68588;BMP180;55560;52.174;20.996;2023-02-28T11:12:31;102073.60;;;3.70
68588;BMP180;55560;52.174;20.996;2023-02-28T11:18:01;102071.80;;;3.70
68588;BMP180;55560;52.174;20.996;2023-02-28T11:20:32;102058.80;;;3.70
68588;BMP180;55560;52.174;20.996;2023-02-28T11:23:03;102056.20;;;3.70
68588;BMP180;55560;52.174;20.996;2023-02-28T11:25:36;102053.40;;;3.70
68588;BMP180;55560;52.174;20.996;2023-02-28T11:28:24;102046.80;;;3.80
68588;BMP180;55560;52.174;20.996;2023-02-28T11:31:05;102047.80;;;3.80
68588;BMP180;55560;52.174;20.996;2023-02-28T11:33:54;102046.20;;;3.80
68588;BMP180;55560;52.174;20.996;2023-02-28T11:36:31;102038.20;;;3.88
68588;BMP180;55560;52.174;20.996;2023-02-28T11:39:08;102037.80;;;3.90
68588;BMP180;55560;52.174;20.996;2023-02-28T11:45:03;102033.60;;;3.88
68588;BMP180;55560;52.174;20.996;2023-02-28T11:48:17;102030.40;;;3.90
68588;BMP180;55560;52.174;20.996;2023-02-28T11:54:08;102014.80;;;3.90
68588;BMP180;55560;52.174;20.996;2023-02-28T11:56:51;102014.20;;;3.98
68588;BMP180;55560;52.174;20.996;2023-02-28T12:05:19;102005.80;;;4.00
68588;BMP180;55560;52.174;20.996;2023-02-28T12:11:50;101997.80;;;4.10
68588;BMP180;55560;52.174;20.996;2023-02-28T12:17:39;101996.80;;;4.20
68588;BMP180;55560;52.174;20.996;2023-02-28T12:20:33;101995.20;;;4.20
68588;BMP180;55560;52.174;20.996;2023-02-28T12:23:38;101997.80;;;4.30
68588;BMP180;55560;52.174;20.996;2023-02-28T12:26:34;101992.80;;;4.30
68588;BMP180;55560;52.174;20.996;2023-02-28T12:29:22;101992.00;;;4.30
68588;BMP180;55560;52.174;20.996;2023-02-28T12:35:36;101987.00;;;4.50
68588;BMP180;55560;52.174;20.996;2023-02-28T12:38:14;101979.40;;;4.50
68588;BMP180;55560;52.174;20.996;2023-02-28T12:40:55;101979.60;;;4.60
68588;BMP180;55560;52.174;20.996;2023-02-28T12:43:31;101980.20;;;4.60
68588;BMP180;55560;52.174;20.996;2023-02-28T12:46:10;101968.00;;;4.70
68588;BMP180;55560;52.174;20.996;2023-02-28T12:48:52;101969.40;;;4.72
68588;BMP180;55560;52.174;20.996;2023-02-28T12:51:22;101965.60;;;4.80
68588;BMP180;55560;52.174;20.996;2023-02-28T12:54:19;101963.60;;;4.90
68588;BMP180;55560;52.174;20.996;2023-02-28T12:57:41;101962.60;;;4.90
68588;BMP180;55560;52.174;20.996;2023-02-28T13:00:35;101962.80;;;4.98
68588;BMP180;55560;52.174;20.996;2023-02-28T13:09:17;101962.60;;;5.30
68588;BMP180;55560;52.174;20.996;2023-02-28T13:11:54;101962.20;;;5.40
68588;BMP180;55560;52.174;20.996;2023-02-28T13:22:43;101944.60;;;5.70
68588;BMP180;55560;52.174;20.996;2023-02-28T13:27:51;101938.80;;;6.00
68588;BMP180;55560;52.174;20.996;2023-02-28T13:33:35;101934.20;;;6.20
68588;BMP180;55560;52.174;20.996;2023-02-28T13:36:26;101935.40;;;6.40
68588;BMP180;55560;52.174;20.996;2023-02-28T13:47:39;101925.20;;;6.90
68588;BMP180;55560;52.174;20.996;2023-02-28T13:53:03;101912.80;;;7.00
68588;BMP180;55560;52.174;20.996;2023-02-28T13:56:07;101908.20;;;7.10
68588;BMP180;55560;52.174;20.996;2023-02-28T13:58:53;101903.60;;;7.26
68588;BMP180;55560;52.174;20.996;2023-02-28T14:01:38;101900.80;;;7.30
68588;BMP180;55560;52.174;20.996;2023-02-28T14:07:06;101895.00;;;7.50
68588;BMP180;55560;52.174;20.996;2023-02-28T14:09:39;101897.20;;;7.66
68588;BMP180;55560;52.174;20.996;2023-02-28T14:15:47;101898.20;;;7.80
68588;BMP180;55560;52.174;20.996;2023-02-28T14:18:28;101895.40;;;7.90
68588;BMP180;55560;52.174;20.996;2023-02-28T14:21:29;101891.80;;;8.04
68588;BMP180;55560;52.174;20.996;2023-02-28T14:24:42;101886.60;;;8.20
68588;BMP180;55560;52.174;20.996;2023-02-28T14:27:57;101878.20;;;8.30
68588;BMP180;55560;52.174;20.996;2023-02-28T14:31:04;101878.60;;;8.50
68588;BMP180;55560;52.174;20.996;2023-02-28T14:33:48;101882.60;;;8.60
68588;BMP180;55560;52.174;20.996;2023-02-28T14:36:40;101883.40;;;8.70
68588;BMP180;55560;52.174;20.996;2023-02-28T14:39:15;101883.40;;;8.80
68588;BMP180;55560;52.174;20.996;2023-02-28T14:41:44;101876.60;;;8.80
68588;BMP180;55560;52.174;20.996;2023-02-28T14:44:23;101876.20;;;8.80
68588;BMP180;55560;52.174;20.996;2023-02-28T14:46:57;101873.00;;;8.86
68588;BMP180;55560;52.174;20.996;2023-02-28T14:49:32;101867.60;;;8.90
68588;BMP180;55560;52.174;20.996;2023-02-28T14:52:17;101872.60;;;8.82
68588;BMP180;55560;52.174;20.996;2023-02-28T14:54:52;101867.60;;;8.80
68588;BMP180;55560;52.174;20.996;2023-02-28T14:57:30;101865.20;;;8.70
68588;BMP180;55560;52.174;20.996;2023-02-28T15:00:16;101866.40;;;8.60
68588;BMP180;55560;52.174;20.996;2023-02-28T15:02:45;101867.20;;;8.40
68588;BMP180;55560;52.174;20.996;2023-02-28T15:07:42;101854.20;;;8.30
68588;BMP180;55560;52.174;20.996;2023-02-28T15:10:26;101856.80;;;8.16
68588;BMP180;55560;52.174;20.996;2023-02-28T15:13:07;101866.40;;;8.00
68588;BMP180;55560;52.174;20.996;2023-02-28T15:15:54;101861.80;;;7.70
68588;BMP180;55560;52.174;20.996;2023-02-28T15:18:51;101861.00;;;7.60
68588;BMP180;55560;52.174;20.996;2023-02-28T15:21:24;101860.60;;;7.50
68588;BMP180;55560;52.174;20.996;2023-02-28T15:24:04;101861.20;;;7.30
68588;BMP180;55560;52.174;20.996;2023-02-28T15:26:41;101858.40;;;7.20
68588;BMP180;55560;52.174;20.996;2023-02-28T15:29:17;101864.20;;;7.10
68588;BMP180;55560;52.174;20.996;2023-02-28T15:32:02;101861.20;;;7.10
68588;BMP180;55560;52.174;20.996;2023-02-28T15:34:43;101867.60;;;6.90
68588;BMP180;55560;52.174;20.996;2023-02-28T15:37:46;101869.20;;;6.86
68588;BMP180;55560;52.174;20.996;2023-02-28T15:40:37;101860.80;;;6.80
68588;BMP180;55560;52.174;20.996;2023-02-28T15:43:18;101863.20;;;6.60
68588;BMP180;55560;52.174;20.996;2023-02-28T15:46:11;101863.40;;;6.50
68588;BMP180;55560;52.174;20.996;2023-02-28T15:48:55;101861.00;;;6.42
68588;BMP180;55560;52.174;20.996;2023-02-28T15:51:36;101869.40;;;6.30
68588;BMP180;55560;52.174;20.996;2023-02-28T15:54:08;101866.80;;;6.20
68588;BMP180;55560;52.174;20.996;2023-02-28T15:56:44;101862.00;;;6.20
68588;BMP180;55560;52.174;20.996;2023-02-28T15:59:20;101867.40;;;6.10
68588;BMP180;55560;52.174;20.996;2023-02-28T16:02:17;101867.20;;;6.06
68588;BMP180;55560;52.174;20.996;2023-02-28T16:07:32;101867.40;;;5.90
68588;BMP180;55560;52.174;20.996;2023-02-28T16:10:01;101864.80;;;5.90
68588;BMP180;55560;52.174;20.996;2023-02-28T16:12:31;101864.80;;;5.80
68588;BMP180;55560;52.174;20.996;2023-02-28T16:15:08;101869.20;;;5.80
68588;BMP180;55560;52.174;20.996;2023-02-28T16:17:39;101874.80;;;5.70
68588;BMP180;55560;52.174;20.996;2023-02-28T16:20:20;101873.00;;;5.64
68588;BMP180;55560;52.174;20.996;2023-02-28T16:22:48;101877.00;;;5.58
68588;BMP180;55560;52.174;20.996;2023-02-28T16:25:20;101882.00;;;5.50
68588;BMP180;55560;52.174;20.996;2023-02-28T16:27:51;101880.80;;;5.40
68588;BMP180;55560;52.174;20.996;2023-02-28T16:30:24;101881.80;;;5.32
68588;BMP180;55560;52.174;20.996;2023-02-28T16:32:56;101882.20;;;5.30
68588;BMP180;55560;52.174;20.996;2023-02-28T16:35:25;101877.80;;;5.20